createdAt,value
2023-04-02T00:02:25.529Z,100.00
2023-04-02T00:08:29.459Z,100.00
2023-04-02T00:14:36.175Z,100.00
2023-04-02T00:20:42.000Z,100.00
2023-04-02T00:26:44.317Z,100.00
2023-04-02T00:32:47.843Z,100.00
2023-04-02T00:38:48.988Z,100.00
2023-04-02T00:44:51.156Z,100.00
2023-04-02T00:50:56.630Z,100.00
2023-04-02T00:56:58.441Z,100.00
2023-04-02T01:03:22.922Z,100.00
2023-04-02T01:09:37.527Z,100.00
2023-04-02T01:15:43.800Z,100.00
2023-04-02T01:21:57.642Z,100.00
2023-04-02T01:27:04.075Z,96.78
2023-04-02T01:32:11.827Z,97.30
2023-04-02T01:37:36.654Z,96.90
2023-04-02T01:43:44.922Z,100.00
2023-04-02T01:48:48.273Z,96.29
2023-04-02T01:54:48.885Z,100.00
2023-04-02T02:00:51.965Z,100.00
2023-04-02T02:06:54.117Z,100.00
2023-04-02T02:12:59.213Z,100.00
2023-04-02T02:19:03.707Z,100.00
2023-04-02T02:25:15.635Z,100.00
2023-04-02T02:31:22.784Z,100.00
2023-04-02T02:37:28.216Z,100.00
2023-04-02T02:43:32.970Z,100.00
2023-04-02T02:49:36.308Z,100.00
2023-04-02T02:55:39.882Z,100.00
2023-04-02T03:01:42.999Z,100.00
2023-04-02T03:07:47.178Z,100.00
2023-04-02T03:13:52.002Z,100.00
2023-04-02T03:20:01.703Z,100.00
2023-04-02T03:26:07.997Z,100.00
2023-04-02T03:32:13.257Z,100.00
2023-04-02T03:38:16.781Z,100.00
2023-04-02T03:44:22.830Z,100.00
2023-04-02T03:50:31.089Z,100.00
2023-04-02T03:56:39.944Z,100.00
2023-04-02T04:02:43.879Z,100.00
2023-04-02T04:08:50.399Z,100.00
2023-04-02T04:14:59.849Z,100.00
2023-04-02T04:21:04.048Z,100.00
2023-04-02T04:27:17.131Z,100.00
2023-04-02T04:33:25.285Z,100.00
2023-04-02T04:39:34.693Z,100.00
2023-04-02T04:45:41.907Z,100.00
2023-04-02T04:51:52.040Z,100.00
2023-04-02T04:57:56.555Z,100.00
2023-04-02T05:04:01.522Z,100.00
2023-04-02T05:10:09.285Z,100.00
2023-04-02T05:16:16.309Z,100.00
2023-04-02T05:22:22.943Z,100.00
2023-04-02T05:28:31.987Z,100.00
2023-04-02T05:34:35.211Z,100.00
2023-04-02T05:40:38.216Z,100.00
2023-04-02T05:46:45.733Z,100.00
2023-04-02T05:52:51.758Z,100.00
2023-04-02T05:58:58.087Z,100.00
2023-04-02T06:05:05.561Z,100.00
2023-04-02T06:11:11.154Z,100.00
2023-04-02T06:17:14.305Z,100.00
2023-04-02T06:23:22.033Z,100.00
2023-04-02T06:29:28.105Z,100.00
2023-04-02T06:35:28.937Z,100.00
2023-04-02T06:41:38.202Z,100.00
2023-04-02T06:47:42.594Z,100.00
2023-04-02T06:53:46.634Z,100.00
2023-04-02T06:59:48.814Z,100.00
2023-04-02T07:05:49.501Z,100.00
2023-04-02T07:11:50.468Z,100.00
2023-04-02T07:17:53.283Z,100.00
2023-04-02T07:23:54.332Z,100.00
2023-04-02T07:29:55.270Z,100.00
2023-04-02T07:35:58.032Z,100.00
2023-04-02T07:41:05.386Z,100.00
2023-04-02T07:46:07.904Z,100.00
2023-04-02T07:51:17.902Z,100.00
2023-04-02T07:56:19.883Z,100.00
2023-04-02T08:01:24.365Z,100.00
2023-04-02T08:06:27.969Z,100.00
2023-04-02T08:11:31.823Z,100.00
2023-04-02T08:16:44.259Z,100.00
2023-04-02T08:21:50.645Z,100.00
2023-04-02T08:26:54.466Z,100.00
2023-04-02T08:31:56.546Z,100.00
2023-04-02T08:36:59.863Z,100.00
2023-04-02T08:42:07.176Z,99.98
2023-04-02T08:47:10.930Z,100.00
2023-04-02T08:52:23.710Z,100.00
2023-04-02T08:57:36.639Z,100.00
2023-04-02T09:02:43.159Z,99.30
2023-04-02T09:08:36.284Z,99.30
2023-04-02T09:13:46.379Z,98.97
2023-04-02T09:18:50.170Z,98.42
2023-04-02T09:23:53.478Z,98.87
2023-04-02T09:29:02.473Z,97.86
2023-04-02T09:34:27.214Z,97.82
2023-04-02T09:39:30.528Z,98.53
2023-04-02T09:44:33.111Z,97.69
2023-04-02T09:49:38.641Z,98.21
2023-04-02T09:54:42.675Z,98.04
2023-04-02T09:59:44.845Z,97.62
2023-04-02T10:04:49.457Z,98.30
2023-04-02T10:10:00.120Z,97.92
2023-04-02T10:15:04.477Z,97.96
2023-04-02T10:20:17.610Z,97.82
2023-04-02T10:25:24.537Z,97.76
2023-04-02T10:30:30.566Z,98.13
2023-04-02T10:35:41.270Z,96.68
2023-04-02T10:40:49.091Z,96.05
2023-04-02T10:45:57.516Z,96.27
2023-04-02T10:51:03.496Z,96.59
2023-04-02T10:56:11.745Z,97.43
2023-04-02T11:01:17.575Z,97.47
2023-04-02T11:06:24.574Z,96.29
2023-04-02T11:11:32.033Z,96.72
2023-04-02T11:16:35.569Z,97.53
2023-04-02T11:21:54.806Z,97.48
2023-04-02T11:27:16.042Z,98.90
2023-04-02T11:32:28.952Z,99.15
2023-04-02T11:37:35.303Z,98.78
2023-04-02T11:42:40.877Z,99.44
2023-04-02T11:47:42.936Z,99.41
2023-04-02T11:52:54.985Z,99.31
2023-04-02T11:58:25.491Z,99.77
2023-04-02T12:03:47.905Z,99.35
2023-04-02T12:09:04.937Z,99.66
2023-04-02T12:14:41.331Z,100.00
2023-04-02T12:19:48.212Z,100.00
2023-04-02T12:24:52.590Z,100.00
2023-04-02T12:30:10.281Z,100.00
2023-04-02T12:35:29.442Z,100.00
2023-04-02T12:40:31.523Z,100.00
2023-04-02T12:45:36.557Z,99.82
2023-04-02T12:50:41.742Z,100.00
2023-04-02T12:55:46.917Z,99.93
2023-04-02T13:00:50.796Z,99.23
2023-04-02T13:05:54.121Z,99.30
2023-04-02T13:10:58.928Z,99.65
2023-04-02T13:16:05.992Z,99.46
2023-04-02T13:21:25.425Z,99.00
2023-04-02T13:26:29.238Z,99.31
2023-04-02T13:31:33.331Z,98.94
2023-04-02T13:36:35.588Z,98.82
2023-04-02T13:41:41.332Z,98.86
2023-04-02T13:46:44.648Z,98.91
2023-04-02T13:51:49.335Z,97.52
2023-04-02T13:56:51.946Z,97.59
2023-04-02T14:01:59.412Z,97.58
2023-04-02T14:07:16.998Z,98.18
2023-04-02T14:12:32.234Z,97.72
2023-04-02T14:17:47.596Z,96.76
2023-04-02T14:23:02.770Z,97.58
2023-04-02T14:28:13.800Z,97.44
2023-04-02T14:33:26.254Z,95.49
2023-04-02T14:38:33.766Z,97.09
2023-04-02T14:43:44.341Z,97.37
2023-04-02T14:48:54.323Z,98.08
2023-04-02T14:54:07.204Z,97.91
2023-04-02T14:59:21.756Z,97.92
2023-04-02T15:04:30.938Z,97.49
2023-04-02T15:09:38.710Z,97.60
2023-04-02T15:14:45.478Z,96.81
2023-04-02T15:19:52.401Z,96.13
2023-04-02T15:25:07.744Z,95.99
2023-04-02T15:30:14.924Z,95.98
2023-04-02T15:35:32.823Z,95.35
2023-04-02T15:40:46.545Z,95.59
2023-04-02T15:45:59.032Z,95.59
2023-04-02T15:51:13.424Z,94.52
2023-04-02T15:56:25.196Z,94.80
2023-04-02T16:01:40.905Z,94.71
2023-04-02T16:06:56.510Z,94.66
2023-04-02T16:12:11.270Z,94.77
2023-04-02T16:17:25.085Z,94.50
2023-04-02T16:22:30.604Z,94.02
2023-04-02T16:27:38.181Z,93.83
2023-04-02T16:32:52.614Z,94.14
2023-04-02T16:37:59.697Z,94.27
2023-04-02T16:43:12.061Z,94.49
2023-04-02T16:48:24.897Z,94.75
2023-04-02T16:53:47.834Z,92.92
2023-04-02T16:59:11.836Z,94.41
2023-04-02T17:04:25.649Z,93.69
2023-04-02T17:09:42.879Z,94.43
2023-04-02T17:14:52.746Z,93.58
2023-04-02T17:19:58.686Z,92.53
2023-04-02T17:25:06.999Z,93.06
2023-04-02T17:30:15.440Z,92.56
2023-04-02T17:35:22.776Z,92.35
2023-04-02T17:40:35.075Z,92.25
2023-04-02T17:45:45.627Z,92.72
2023-04-02T17:51:01.599Z,93.51
2023-04-02T17:56:24.663Z,92.84
2023-04-02T18:01:33.370Z,92.88
2023-04-02T18:06:41.673Z,93.21
2023-04-02T18:11:55.668Z,93.79
2023-04-02T18:17:04.382Z,93.60
2023-04-02T18:22:16.289Z,94.06
2023-04-02T18:27:43.750Z,94.82
2023-04-02T18:33:04.348Z,95.68
2023-04-02T18:38:21.392Z,96.92
2023-04-02T18:43:36.178Z,97.19
2023-04-02T18:48:46.351Z,97.70
2023-04-02T18:53:51.695Z,98.56
2023-04-02T18:58:58.244Z,98.75
2023-04-02T19:04:03.875Z,99.01
2023-04-02T19:09:15.059Z,98.61
2023-04-02T19:14:20.499Z,98.19
2023-04-02T19:19:25.045Z,98.44
2023-04-02T19:24:38.783Z,98.25
2023-04-02T19:29:52.638Z,98.23
2023-04-02T19:35:02.704Z,98.57
2023-04-02T19:40:30.330Z,98.25
2023-04-02T19:45:36.335Z,98.51
2023-04-02T19:50:38.708Z,98.47
2023-04-02T19:55:41.510Z,98.17
2023-04-02T20:00:44.873Z,97.78
2023-04-02T20:05:46.944Z,97.51
2023-04-02T20:10:49.034Z,97.52
2023-04-02T20:15:52.458Z,97.80
2023-04-02T20:20:54.920Z,97.61
2023-04-02T20:25:57.679Z,97.29
2023-04-02T20:31:11.706Z,97.42
2023-04-02T20:36:15.670Z,97.25
2023-04-02T20:41:18.223Z,96.82
2023-04-02T20:46:22.382Z,97.19
2023-04-02T20:51:24.483Z,97.27
2023-04-02T20:56:26.783Z,96.85
2023-04-02T21:01:30.851Z,96.94
2023-04-02T21:06:33.960Z,96.92
2023-04-02T21:11:36.682Z,97.14
2023-04-02T21:16:41.334Z,96.65
2023-04-02T21:21:44.799Z,96.87
2023-04-02T21:26:47.111Z,96.99
2023-04-02T21:31:50.789Z,97.43
2023-04-02T21:36:52.769Z,97.32
2023-04-02T21:41:54.986Z,97.73
2023-04-02T21:46:58.327Z,98.09
2023-04-02T21:52:00.391Z,98.69
2023-04-02T21:57:02.430Z,98.40
2023-04-02T22:02:06.798Z,98.36
2023-04-02T22:07:08.772Z,97.75
2023-04-02T22:12:10.932Z,97.87
2023-04-02T22:17:14.272Z,97.90
2023-04-02T22:22:16.239Z,97.90
2023-04-02T22:27:18.240Z,98.32
2023-04-02T22:32:21.573Z,98.32
2023-04-02T22:37:23.684Z,97.57
2023-04-02T22:42:26.682Z,98.01
2023-04-02T22:47:29.982Z,98.13
2023-04-02T22:52:32.033Z,98.76
2023-04-02T22:57:34.267Z,100.00
2023-04-02T23:02:38.247Z,100.00
2023-04-02T23:07:40.472Z,97.79
2023-04-02T23:12:42.476Z,98.78
2023-04-02T23:17:45.854Z,100.00
2023-04-02T23:22:47.844Z,100.00
2023-04-02T23:27:49.803Z,100.00
2023-04-02T23:32:53.113Z,100.00
2023-04-02T23:37:55.319Z,100.00
2023-04-02T23:42:57.289Z,100.00
2023-04-02T23:48:00.694Z,100.00
2023-04-02T23:53:02.691Z,100.00
2023-04-02T23:58:04.740Z,96.91
